createdAt,value
2018-10-07T00:01:31.457Z,15.47
2018-10-07T00:04:37.002Z,15.49
2018-10-07T00:07:42.397Z,15.41
2018-10-07T00:10:47.795Z,15.29
2018-10-07T00:13:53.231Z,15.24
2018-10-07T00:16:58.627Z,15.24
2018-10-07T00:20:04.418Z,15.20
2018-10-07T00:23:09.930Z,15.08
2018-10-07T00:26:15.344Z,14.99
2018-10-07T00:29:20.852Z,14.94
2018-10-07T00:32:26.299Z,14.91
2018-10-07T00:35:31.782Z,14.94
2018-10-07T00:38:37.166Z,15.05
2018-10-07T00:41:42.583Z,14.90
2018-10-07T00:44:48.378Z,14.98
2018-10-07T00:47:54.203Z,14.88
2018-10-07T00:50:59.971Z,14.77
2018-10-07T00:54:05.573Z,14.78
2018-10-07T00:57:11.003Z,14.74
2018-10-07T01:00:16.462Z,14.61
2018-10-07T01:03:21.858Z,14.47
2018-10-07T01:06:27.263Z,14.44
2018-10-07T01:09:32.662Z,14.33
2018-10-07T01:12:38.066Z,14.26
2018-10-07T01:15:43.466Z,14.13
2018-10-07T01:18:48.858Z,14.00
2018-10-07T01:21:54.269Z,13.88
2018-10-07T01:24:59.770Z,13.76
2018-10-07T01:28:05.153Z,13.53
2018-10-07T01:31:10.559Z,13.37
2018-10-07T01:34:16.003Z,13.26
2018-10-07T01:37:21.414Z,13.39
2018-10-07T01:40:26.842Z,13.28
2018-10-07T01:43:34.451Z,13.28
2018-10-07T01:46:39.865Z,13.11
2018-10-07T01:49:45.241Z,12.82
2018-10-07T01:52:52.763Z,12.89
2018-10-07T01:55:58.149Z,12.74
2018-10-07T01:59:03.522Z,12.55
2018-10-07T02:02:09.030Z,12.42
2018-10-07T02:05:14.624Z,12.23
2018-10-07T02:08:20.146Z,12.12
2018-10-07T02:11:25.538Z,11.97
2018-10-07T02:14:31.096Z,11.83
2018-10-07T02:17:36.518Z,11.59
2018-10-07T02:20:41.917Z,11.43
2018-10-07T02:23:47.578Z,11.34
2018-10-07T02:26:53.539Z,11.24
2018-10-07T02:29:58.906Z,11.09
2018-10-07T02:33:04.427Z,11.08
2018-10-07T02:36:09.855Z,10.99
2018-10-07T02:39:15.314Z,11.07
2018-10-07T02:42:20.771Z,10.91
2018-10-07T02:45:26.282Z,10.85
2018-10-07T02:48:31.691Z,10.81
2018-10-07T02:51:37.967Z,10.60
2018-10-07T02:54:43.561Z,10.77
2018-10-07T02:57:50.202Z,10.82
2018-10-07T03:00:55.979Z,10.77
2018-10-07T03:04:01.503Z,10.77
2018-10-07T03:07:07.747Z,10.83
2018-10-07T03:10:13.196Z,10.56
2018-10-07T03:13:18.679Z,10.70
2018-10-07T03:16:24.099Z,10.69
2018-10-07T03:19:29.802Z,10.55
2018-10-07T03:22:35.714Z,10.64
2018-10-07T03:25:41.110Z,10.53
2018-10-07T03:28:46.551Z,10.27
2018-10-07T03:31:51.983Z,10.45
2018-10-07T03:34:57.421Z,10.44
2018-10-07T03:38:02.814Z,10.40
2018-10-07T03:41:19.598Z,10.35
2018-10-07T03:44:25.027Z,10.32
2018-10-07T03:47:30.702Z,10.29
2018-10-07T03:50:36.570Z,10.30
2018-10-07T03:53:42.034Z,10.24
2018-10-07T03:56:47.557Z,10.37
2018-10-07T03:59:53.055Z,10.51
2018-10-07T04:02:58.583Z,10.57
2018-10-07T04:06:03.987Z,10.51
2018-10-07T04:09:11.502Z,10.33
2018-10-07T04:12:17.126Z,10.37
2018-10-07T04:15:22.594Z,10.27
2018-10-07T04:18:28.025Z,10.12
2018-10-07T04:21:33.480Z,10.24
2018-10-07T04:24:38.951Z,10.25
2018-10-07T04:27:44.355Z,10.15
2018-10-07T04:30:49.753Z,10.02
2018-10-07T04:33:55.301Z,10.02
2018-10-07T04:37:00.722Z,9.80
2018-10-07T04:40:06.390Z,9.96
2018-10-07T04:43:11.845Z,9.94
2018-10-07T04:46:17.297Z,9.95
2018-10-07T04:49:22.881Z,9.79
2018-10-07T04:52:28.291Z,9.88
2018-10-07T04:55:33.730Z,10.00
2018-10-07T04:58:39.146Z,10.01
2018-10-07T05:01:44.535Z,10.00
2018-10-07T05:04:50.006Z,10.01
2018-10-07T05:07:55.630Z,10.17
2018-10-07T05:11:02.530Z,10.13
2018-10-07T05:14:09.359Z,10.10
2018-10-07T05:17:17.186Z,10.04
2018-10-07T05:20:22.619Z,9.94
2018-10-07T05:23:28.207Z,9.83
2018-10-07T05:26:34.471Z,9.63
2018-10-07T05:29:39.921Z,9.58
2018-10-07T05:32:45.350Z,9.73
2018-10-07T05:35:50.754Z,9.78
2018-10-07T05:38:56.229Z,9.68
2018-10-07T05:42:01.641Z,9.62
2018-10-07T05:45:07.439Z,9.67
2018-10-07T05:48:12.883Z,9.51
2018-10-07T05:51:18.266Z,9.49
2018-10-07T05:54:23.710Z,9.58
2018-10-07T05:57:29.247Z,9.59
2018-10-07T06:00:36.619Z,9.44
2018-10-07T06:04:56.190Z,9.42
2018-10-07T06:08:02.174Z,9.49
2018-10-07T06:11:07.599Z,9.52
2018-10-07T06:14:34.781Z,9.41
2018-10-07T06:17:40.522Z,9.30
2018-10-07T06:20:46.606Z,9.39
2018-10-07T06:23:52.442Z,9.50
2018-10-07T06:26:57.905Z,9.36
2018-10-07T06:30:03.375Z,9.24
2018-10-07T06:33:08.863Z,9.22
2018-10-07T06:36:14.619Z,9.32
2018-10-07T06:39:20.058Z,9.23
2018-10-07T06:42:28.045Z,9.32
2018-10-07T06:45:33.878Z,9.44
2018-10-07T06:48:39.494Z,9.46
2018-10-07T06:51:44.914Z,9.30
2018-10-07T06:54:51.078Z,9.25
2018-10-07T06:57:56.481Z,9.28
2018-10-07T07:01:01.917Z,9.39
2018-10-07T07:04:07.470Z,9.38
2018-10-07T07:07:12.859Z,9.37
2018-10-07T07:10:19.347Z,9.46
2018-10-07T07:13:24.928Z,9.47
2018-10-07T07:16:31.125Z,9.45
2018-10-07T07:19:36.591Z,9.38
2018-10-07T07:22:42.257Z,9.47
2018-10-07T07:25:47.681Z,9.53
2018-10-07T07:28:53.643Z,9.71
2018-10-07T07:31:59.054Z,10.15
2018-10-07T07:35:04.595Z,10.30
2018-10-07T07:38:09.978Z,10.34
2018-10-07T07:41:15.402Z,10.43
2018-10-07T07:44:20.986Z,10.39
2018-10-07T07:47:26.387Z,10.32
2018-10-07T07:50:31.840Z,10.21
2018-10-07T07:53:37.345Z,10.13
2018-10-07T07:56:42.766Z,10.23
2018-10-07T07:59:48.166Z,10.32
2018-10-07T08:02:53.595Z,10.40
2018-10-07T08:05:59.042Z,10.41
2018-10-07T08:09:05.881Z,10.60
2018-10-07T08:12:11.270Z,10.75
2018-10-07T08:15:16.770Z,10.94
2018-10-07T08:18:22.171Z,10.87
2018-10-07T08:21:27.595Z,10.88
2018-10-07T08:24:33.131Z,11.41
2018-10-07T08:27:38.726Z,12.14
2018-10-07T08:30:46.331Z,12.46
2018-10-07T08:33:51.903Z,12.73
2018-10-07T08:37:00.851Z,12.82
2018-10-07T08:40:06.454Z,13.05
2018-10-07T08:43:11.911Z,13.16
2018-10-07T08:46:18.980Z,13.13
2018-10-07T08:49:28.788Z,12.92
2018-10-07T08:52:38.625Z,12.76
2018-10-07T08:55:48.405Z,12.74
2018-10-07T08:59:07.470Z,12.56
2018-10-07T09:02:13.159Z,12.63
2018-10-07T09:05:18.856Z,12.63
2018-10-07T09:08:24.255Z,12.66
2018-10-07T09:11:29.662Z,12.65
2018-10-07T09:14:35.433Z,12.62
2018-10-07T09:17:41.041Z,12.77
2018-10-07T09:20:46.537Z,12.81
2018-10-07T09:23:52.126Z,12.75
2018-10-07T09:26:57.608Z,12.85
2018-10-07T09:30:04.164Z,12.94
2018-10-07T09:33:09.626Z,13.10
2018-10-07T09:36:15.039Z,13.23
2018-10-07T09:39:20.499Z,13.32
2018-10-07T09:42:26.099Z,13.41
2018-10-07T09:45:32.182Z,13.33
2018-10-07T09:48:38.106Z,13.33
2018-10-07T09:51:43.529Z,13.51
2018-10-07T09:54:48.997Z,13.60
2018-10-07T09:57:54.429Z,13.64
2018-10-07T10:01:00.058Z,13.63
2018-10-07T10:04:05.918Z,13.74
2018-10-07T10:07:11.598Z,13.78
2018-10-07T10:10:17.194Z,13.78
2018-10-07T10:13:22.702Z,13.87
2018-10-07T10:16:39.371Z,13.79
2018-10-07T10:19:57.046Z,13.79
2018-10-07T10:23:18.633Z,13.80
2018-10-07T10:26:42.243Z,13.87
2018-10-07T10:29:53.113Z,14.01
2018-10-07T10:33:11.487Z,14.03
2018-10-07T10:37:07.788Z,14.03
2018-10-07T10:40:29.418Z,14.08
2018-10-07T10:43:57.725Z,14.31
2018-10-07T10:47:11.298Z,14.33
2018-10-07T10:50:29.950Z,14.40
2018-10-07T10:53:44.459Z,14.73
2018-10-07T10:57:07.774Z,14.86
2018-10-07T11:00:15.969Z,15.07
2018-10-07T11:03:48.046Z,15.18
2018-10-07T11:07:16.594Z,15.15
2018-10-07T11:10:42.113Z,15.57
2018-10-07T11:14:02.092Z,15.59
2018-10-07T11:17:41.521Z,16.08
2018-10-07T11:23:08.822Z,16.51
2018-10-07T11:27:27.294Z,17.04
2018-10-07T11:31:42.651Z,17.28
2018-10-07T11:35:14.667Z,17.05
2018-10-07T11:38:44.911Z,17.39
2018-10-07T11:42:05.861Z,18.28
2018-10-07T11:46:24.418Z,19.28
2018-10-07T11:49:45.357Z,20.10
2018-10-07T11:54:09.996Z,21.41
2018-10-07T11:57:15.379Z,22.26
2018-10-07T12:00:20.822Z,22.02
2018-10-07T12:03:26.327Z,23.51
2018-10-07T12:06:32.483Z,22.63
2018-10-07T12:09:37.889Z,22.07
2018-10-07T12:12:43.270Z,22.64
2018-10-07T12:15:48.679Z,22.87
2018-10-07T12:18:54.062Z,23.75
2018-10-07T12:21:59.462Z,23.77
2018-10-07T12:25:05.169Z,24.84
2018-10-07T12:28:10.866Z,25.67
2018-10-07T12:31:16.369Z,25.68
2018-10-07T12:34:21.854Z,24.96
2018-10-07T12:37:28.290Z,23.84
2018-10-07T12:40:33.874Z,25.28
2018-10-07T12:43:39.334Z,25.38
2018-10-07T12:46:44.870Z,26.57
2018-10-07T12:49:50.279Z,27.22
2018-10-07T12:52:56.610Z,27.80
2018-10-07T12:56:02.723Z,27.66
2018-10-07T12:59:08.701Z,28.04
2018-10-07T13:02:14.617Z,28.41
2018-10-07T13:05:20.486Z,28.52
2018-10-07T13:08:25.860Z,27.95
2018-10-07T13:11:31.274Z,26.82
2018-10-07T13:14:36.762Z,26.93
2018-10-07T13:17:42.197Z,25.38
2018-10-07T13:20:47.626Z,22.61
2018-10-07T13:23:53.106Z,22.70
2018-10-07T13:26:58.517Z,24.10
2018-10-07T13:30:04.370Z,24.14
2018-10-07T13:33:09.883Z,23.43
2018-10-07T13:36:15.310Z,22.80
2018-10-07T13:39:20.730Z,22.89
2018-10-07T13:42:26.305Z,22.16
2018-10-07T13:45:31.798Z,21.38
2018-10-07T13:48:37.243Z,20.27
2018-10-07T13:51:42.686Z,20.26
2018-10-07T13:54:48.210Z,19.95
2018-10-07T13:57:53.613Z,19.29
2018-10-07T14:00:59.066Z,18.90
2018-10-07T14:04:04.827Z,18.51
2018-10-07T14:07:10.248Z,18.43
2018-10-07T14:10:15.645Z,17.99
2018-10-07T14:13:21.275Z,17.65
2018-10-07T14:16:30.438Z,17.59
2018-10-07T14:19:35.876Z,17.22
2018-10-07T14:22:41.325Z,17.55
2018-10-07T14:25:47.174Z,17.32
2018-10-07T14:28:52.647Z,17.25
2018-10-07T14:32:00.214Z,17.58
2018-10-07T14:35:06.830Z,17.64
2018-10-07T14:38:14.394Z,17.61
2018-10-07T14:41:22.122Z,17.57
2018-10-07T14:44:27.566Z,16.96
2018-10-07T14:47:32.938Z,16.59
2018-10-07T14:50:38.302Z,16.14
2018-10-07T14:53:43.799Z,16.05
2018-10-07T14:56:49.208Z,15.96
2018-10-07T14:59:54.594Z,15.82
2018-10-07T15:03:00.465Z,16.03
2018-10-07T15:06:09.318Z,16.08
2018-10-07T15:09:25.563Z,16.23
2018-10-07T15:12:35.207Z,16.24
2018-10-07T15:15:42.347Z,15.96
2018-10-07T15:18:50.947Z,16.13
2018-10-07T15:22:00.368Z,16.30
2018-10-07T15:25:18.693Z,16.34
2018-10-07T15:28:26.443Z,16.34
2018-10-07T15:31:38.827Z,16.36
2018-10-07T15:34:44.810Z,16.32
2018-10-07T15:37:52.338Z,16.09
2018-10-07T15:40:57.718Z,15.72
2018-10-07T15:44:03.245Z,15.63
2018-10-07T15:47:08.892Z,15.31
2018-10-07T15:50:14.370Z,15.15
2018-10-07T15:53:19.874Z,15.32
2018-10-07T15:56:25.246Z,15.26
2018-10-07T15:59:30.658Z,15.24
2018-10-07T16:02:36.099Z,15.03
2018-10-07T16:05:41.514Z,14.92
2018-10-07T16:08:46.933Z,15.03
2018-10-07T16:11:52.542Z,14.95
2018-10-07T16:14:57.999Z,15.04
2018-10-07T16:18:03.654Z,15.08
2018-10-07T16:21:11.136Z,14.83
2018-10-07T16:24:19.521Z,14.77
2018-10-07T16:27:28.106Z,14.65
2018-10-07T16:30:36.810Z,14.40
2018-10-07T16:33:42.634Z,14.30
2018-10-07T16:36:48.191Z,14.48
2018-10-07T16:39:53.788Z,14.44
2018-10-07T16:42:59.240Z,14.43
2018-10-07T16:46:04.859Z,14.53
2018-10-07T16:49:10.250Z,14.53
2018-10-07T16:52:15.876Z,14.28
2018-10-07T16:55:21.322Z,14.33
2018-10-07T16:58:26.701Z,14.09
2018-10-07T17:01:32.065Z,14.01
2018-10-07T17:04:37.566Z,13.99
2018-10-07T17:07:43.115Z,13.96
2018-10-07T17:10:48.465Z,13.98
2018-10-07T17:13:54.012Z,14.00
2018-10-07T17:16:59.378Z,13.93
2018-10-07T17:20:04.787Z,13.88
2018-10-07T17:23:10.299Z,13.55
2018-10-07T17:26:15.808Z,13.45
2018-10-07T17:29:21.311Z,13.30
2018-10-07T17:32:26.662Z,13.34
2018-10-07T17:35:34.206Z,13.34
2018-10-07T17:38:39.647Z,13.32
2018-10-07T17:41:45.014Z,13.23
2018-10-07T17:44:50.454Z,13.22
2018-10-07T17:47:55.859Z,13.19
2018-10-07T17:51:01.226Z,13.19
2018-10-07T17:54:06.925Z,13.16
2018-10-07T17:57:12.302Z,13.10
2018-10-07T18:00:17.792Z,12.94
2018-10-07T18:03:23.322Z,12.94
2018-10-07T18:06:29.653Z,12.77
2018-10-07T18:09:35.062Z,12.71
2018-10-07T18:12:40.502Z,12.55
2018-10-07T18:15:49.353Z,12.57
2018-10-07T18:19:06.760Z,12.38
2018-10-07T18:22:12.123Z,12.44
2018-10-07T18:25:17.903Z,12.29
2018-10-07T18:28:23.278Z,12.28
2018-10-07T18:31:28.634Z,12.13
2018-10-07T18:34:34.411Z,12.07
2018-10-07T18:37:39.947Z,12.04
2018-10-07T18:40:45.329Z,11.91
2018-10-07T18:43:50.791Z,11.91
2018-10-07T18:46:56.461Z,11.91
2018-10-07T18:50:01.933Z,11.63
2018-10-07T18:53:07.767Z,11.57
2018-10-07T18:56:13.175Z,11.56
2018-10-07T18:59:18.569Z,11.51
2018-10-07T19:02:24.524Z,11.58
2018-10-07T19:05:30.153Z,11.60
2018-10-07T19:08:35.558Z,11.61
2018-10-07T19:11:41.123Z,11.59
2018-10-07T19:14:46.668Z,11.64
2018-10-07T19:17:52.207Z,11.62
2018-10-07T19:20:57.626Z,11.54
2018-10-07T19:24:03.293Z,11.50
2018-10-07T19:27:08.799Z,11.41
2018-10-07T19:30:14.210Z,11.30
2018-10-07T19:33:19.690Z,11.32
2018-10-07T19:36:25.114Z,11.21
2018-10-07T19:39:30.500Z,11.19
2018-10-07T19:42:38.159Z,11.14
2018-10-07T19:45:43.558Z,11.16
2018-10-07T19:48:48.926Z,11.01
2018-10-07T19:51:54.330Z,10.85
2018-10-07T19:54:59.810Z,10.80
2018-10-07T19:58:05.212Z,10.87
2018-10-07T20:01:10.610Z,10.93
2018-10-07T20:04:16.243Z,10.93
2018-10-07T20:07:21.655Z,10.70
2018-10-07T20:10:27.038Z,10.79
2018-10-07T20:13:32.557Z,10.62
2018-10-07T20:16:38.116Z,10.65
2018-10-07T20:19:43.503Z,10.58
2018-10-07T20:22:48.918Z,10.64
2018-10-07T20:25:54.318Z,10.59
2018-10-07T20:28:59.782Z,10.57
2018-10-07T20:32:05.206Z,10.61
2018-10-07T20:35:10.726Z,10.61
2018-10-07T20:38:16.086Z,10.55
2018-10-07T20:41:21.465Z,10.24
2018-10-07T20:44:26.872Z,10.28
2018-10-07T20:47:32.278Z,10.31
2018-10-07T20:50:37.658Z,10.35
2018-10-07T20:53:43.074Z,10.34
2018-10-07T20:56:48.458Z,10.29
2018-10-07T20:59:53.837Z,10.29
2018-10-07T21:02:59.519Z,10.32
2018-10-07T21:06:05.097Z,10.31
2018-10-07T21:09:11.997Z,10.28
2018-10-07T21:12:17.365Z,10.25
2018-10-07T21:15:22.798Z,10.17
2018-10-07T21:18:28.176Z,10.03
2018-10-07T21:21:33.590Z,10.02
2018-10-07T21:24:39.031Z,10.00
2018-10-07T21:27:44.467Z,10.00
2018-10-07T21:30:49.856Z,10.02
2018-10-07T21:33:55.380Z,10.01
2018-10-07T21:37:00.795Z,9.93
2018-10-07T21:40:06.275Z,9.87
2018-10-07T21:43:11.786Z,9.90
2018-10-07T21:46:17.183Z,9.90
2018-10-07T21:49:22.594Z,9.86
2018-10-07T21:52:27.999Z,9.89
2018-10-07T21:55:33.626Z,9.86
2018-10-07T21:58:39.004Z,9.89
2018-10-07T22:01:44.410Z,9.86
2018-10-07T22:04:49.862Z,9.84
2018-10-07T22:07:55.267Z,9.79
2018-10-07T22:11:01.029Z,9.83
2018-10-07T22:14:06.525Z,9.64
2018-10-07T22:17:11.934Z,9.68
2018-10-07T22:20:17.302Z,9.63
2018-10-07T22:23:22.774Z,9.64
2018-10-07T22:26:28.194Z,9.68
2018-10-07T22:29:33.794Z,9.68
2018-10-07T22:32:39.191Z,9.67
2018-10-07T22:35:44.610Z,9.71
2018-10-07T22:38:50.082Z,9.70
2018-10-07T22:41:55.474Z,9.64
2018-10-07T22:45:00.867Z,9.66
2018-10-07T22:48:06.445Z,9.66
2018-10-07T22:51:11.822Z,9.66
2018-10-07T22:54:17.258Z,9.50
2018-10-07T22:57:22.979Z,9.39
2018-10-07T23:00:28.334Z,9.36
2018-10-07T23:03:34.002Z,9.41
2018-10-07T23:06:39.376Z,9.30
2018-10-07T23:09:44.728Z,9.16
2018-10-07T23:12:50.216Z,9.17
2018-10-07T23:15:55.575Z,9.23
2018-10-07T23:19:00.954Z,9.11
2018-10-07T23:22:07.118Z,9.13
2018-10-07T23:25:12.522Z,9.19
2018-10-07T23:28:17.923Z,9.20
2018-10-07T23:31:23.307Z,9.11
2018-10-07T23:34:28.784Z,9.09
2018-10-07T23:37:34.223Z,9.08
2018-10-07T23:40:39.774Z,9.12
2018-10-07T23:43:45.358Z,9.14
2018-10-07T23:46:50.710Z,9.21
2018-10-07T23:49:56.081Z,9.21
2018-10-07T23:53:01.719Z,9.09
2018-10-07T23:56:07.779Z,9.13
2018-10-07T23:59:13.158Z,9.17
